Latest Coastal Weather Observations for Esperance

IDW60701

Issued at 11:22 pm WST Friday 30 January 2015 (issued every 10 minutes, with the page automatically refreshed every 10 minutes)

About coastal observations | Map of coastal stations | Coastal observations for WA | Marine services | Other Formats
Station Details ID: 009789 Name: ESPERANCE Lat: -33.83 Lon: 121.89 Height: 25.0 m
Data from the previous 72 hours. | See also: Recent months at Esperance
Date/Time
WST
Temp

°C
Wind Pressure Rain
since 9am
mm
Weather Cloud Vis
km
Sea
Height
m
Swell
Dir
 
Speed
knots
Gust
knots
hPa Trend Height
m
Period
s
Dir
30/11:00pm 18.5 ESE 8 12 1019.4 - 0.0 - - 10 - - - -
30/10:30pm 19.0 E 8 12 1019.7 - 0.0 - Partly cloudy 10 - - - -
30/10:00pm 19.2 ESE 8 13 1019.7 - 0.0 - Partly cloudy 10 - - - -
30/09:30pm 19.2 ESE 11 15 1019.5 - 0.0 - Partly cloudy 10 - - - -
30/09:00pm 19.2 ESE 13 19 1019.5 R 0.0 - - 10 - - - -
30/08:30pm 19.3 ESE 14 20 1019.3 - 0.0 - - 10 - - - -
30/08:00pm 19.4 ESE 15 20 1018.7 - 0.0 - Mostly clear 10 - - - -
30/07:30pm 19.6 ESE 15 20 1018.4 - 0.0 - Mostly clear 10 - - - -
30/07:00pm 19.7 ESE 16 22 1018.2 - 0.0 - Mostly clear 10 - - - -
30/06:30pm 20.2 ESE 16 23 1017.9 - 0.0 - Mostly clear 10 - - - -
30/06:00pm 20.4 ESE 16 24 1017.8 R 0.0 Haze Mostly cloudy 20 - - - -
30/05:30pm 20.5 ESE 16 24 1017.3 - 0.0 - - 10 - - - -
30/05:00pm 20.9 SE 15 21 1017.2 - 0.0 - - 10 - - - -
30/04:30pm 21.4 SE 15 22 1017.5 - 0.0 - - 10 - - - -
30/04:00pm 21.6 SE 18 25 1017.3 - 0.0 - - 10 - - - -
30/03:30pm 22.4 SE 18 23 1017.0 - 0.0 - - 10 - - - -
30/03:00pm 21.5 SE 17 24 1017.2 R 0.0 Haze Mostly cloudy 25 - - - -
30/02:30pm 22.0 SE 17 24 1017.2 - 0.0 - - 10 - - - -
30/02:00pm 22.2 SE 18 25 1017.3 - 0.0 - - 10 - - - -
30/01:30pm 22.5 SE 17 23 1017.5 - 0.0 - Mostly clear 10 - - - -
30/01:00pm 22.8 SE 18 25 1017.7 - 0.0 - Mostly clear 10 - - - -
30/12:30pm 22.4 SE 19 24 1017.7 - 0.0 - Mostly clear 10 - - - -
30/12:00pm 23.1 SE 19 24 1017.8 R 0.0 Fine Mostly cloudy 30 - - - -
30/11:30am 23.4 SE 17 22 1018.1 - 0.0 - Mostly clear 10 - - - -
30/11:00am 23.1 SE 15 21 1018.2 - 0.0 - Mostly clear 10 - - - -
30/10:30am 22.9 SE 15 21 1018.4 - 0.0 - Mostly clear 10 - - - -
30/09:30am 23.1 SE 14 19 1018.4 - 0.0 - Mostly clear 10 - - - -
30/09:00am 22.4 SE 12 17 1018.5 R 0.0 Fine Partly cloudy 25 - - - -
30/08:30am 21.9 ESE 12 17 1018.6 - 0.0 - Mostly clear 10 - - - -
30/08:00am 21.9 ESE 13 17 1018.4 - 0.0 - Mostly clear 10 - - - -
30/07:30am 20.5 ESE 12 19 1018.4 - 0.0 - Partly cloudy 10 - - - -
30/06:00am 17.8 ENE 5 8 1017.9 R 0.0 Haze Mostly cloudy 20 - - - -
30/05:30am 17.3 E 6 8 1017.2 - 0.0 - Partly cloudy 10 - - - -
30/05:00am 17.4 E 6 9 1016.6 - 0.0 - Partly cloudy 10 - - - -
30/04:30am 17.9 E 9 14 1016.2 - 0.0 - Cloudy 10 - - - -
30/04:00am 17.6 E 9 13 1016.0 - 0.0 - Cloudy 10 - - - -
30/03:30am 16.7 ESE 8 15 1015.5 - 0.0 - Partly cloudy 10 - - - -
30/03:00am 16.8 ESE 8 13 1015.4 R 0.0 - Mostly clear 10 - - - -
30/02:30am 16.9 ESE 9 13 1015.0 - 0.0 - - 10 - - - -
30/02:00am 17.1 ESE 8 10 1014.8 - 0.0 - - 10 - - - -
30/01:30am 17.0 E 8 11 1014.8 - 0.0 - - 10 - - - -
30/01:00am 16.8 ESE 7 10 1014.7 - 0.0 - - 10 - - - -
30/12:30am 17.4 ENE 5 8 1014.4 - 0.0 - - 10 - - - -
30/12:00am 17.8 ENE 6 11 1014.7 R 0.0 - Partly cloudy 10 - - - -
 
Date/Time
WST
Temp

°C
Wind Pressure Rain
since 9am
mm
Weather Cloud Vis
km
Sea
Height
m
Swell
Dir
 
Speed
knots
Gust
knots
hPa Trend Height
m
Period
s
Dir
29/11:30pm 18.2 E 7 11 1014.7 - 0.0 - - 10 - - - -
29/11:00pm 18.2 E 7 10 1014.6 - 0.0 - - 10 - - - -
29/10:30pm 18.5 E 6 10 1014.5 - 0.0 - - 10 - - - -
29/10:00pm 19.1 E 7 9 1014.5 - 0.0 - - 10 - - - -
29/09:30pm 19.5 ESE 7 9 1014.5 - 0.0 - - 10 - - - -
29/09:00pm 19.9 ESE 8 11 1014.3 R 0.0 - - 10 - - - -
29/08:30pm 20.3 ESE 10 14 1013.8 - 0.0 - - 10 - - - -
29/08:00pm 20.5 ESE 11 15 1013.5 - 0.0 - - 10 - - - -
29/07:30pm 20.9 ESE 9 13 1013.1 - 0.0 - - 10 - - - -
29/07:00pm 21.4 SE 11 17 1012.5 - 0.0 - - 10 - - - -
29/06:30pm 22.3 ESE 12 17 1011.9 - 0.0 - - 10 - - - -
29/06:00pm 23.1 ESE 13 19 1011.8 R 0.0 Haze Mostly clear 20 - - - -
29/05:30pm 23.4 SE 14 20 1011.3 - 0.0 - - 10 - - - -
29/05:00pm 24.3 SE 16 21 1011.1 - 0.0 - - 10 - - - -
29/04:30pm 25.2 SE 14 20 1011.0 - 0.0 - - 10 - - - -
29/04:00pm 26.1 SE 14 21 1011.0 - 0.0 - - 10 - - - -
29/03:30pm 26.7 SE 14 21 1011.2 - 0.0 - - 10 - - - -
29/03:00pm 26.9 SE 15 22 1011.3 R 0.0 Fine Mostly clear 25 - - - -
29/02:30pm 26.3 SE 17 24 1011.3 - 0.0 - - 10 - - - -
29/02:00pm 27.4 SE 16 23 1011.5 - 0.0 - - 10 - - - -
29/01:30pm 26.4 SE 17 23 1011.7 - 0.0 - - 10 - - - -
29/01:00pm 26.9 SE 17 23 1011.9 - 0.0 - - 10 - - - -
29/12:30pm 27.8 SE 16 21 1011.9 - 0.0 - - 10 - - - -
29/12:00pm 27.0 SE 15 20 1012.1 F 0.0 Fine Mostly clear 30 - - - -
29/11:30am 28.9 SSE 11 13 1012.6 - 0.0 - - 10 - - - -
29/11:00am 27.7 SSE 11 14 1012.9 - 0.0 - - 10 - - - -
29/10:30am 28.8 SE 9 11 1013.3 - 0.0 - - 10 - - - -
29/10:00am 29.1 NE 7 14 1013.5 - 0.0 - - 10 - - - -
29/09:30am 28.0 NNE 8 11 1013.6 - 0.0 - - 10 - - - -
29/09:00am 26.0 NE 8 11 1013.8 F 0.0 Fine Mostly clear 30 - - - -
29/08:30am 24.4 NNE 7 11 1014.0 - 0.0 - - 10 - - - -
29/08:00am 22.7 NNE 8 11 1013.7 - 0.0 - - 10 - - - -
29/07:30am 20.9 NNE 12 17 1013.7 - 0.0 - - 10 - - - -
29/07:00am 19.7 NNE 8 14 1013.7 - 0.0 - - 10 - - - -
29/06:30am 18.2 NE 11 15 1013.3 - 0.0 - - 10 - - - -
29/06:00am 17.0 NE 7 11 1013.5 R 0.0 Fine Clear 30 - - - -
29/05:30am 16.1 NE 6 9 1013.0 - 0.0 - - 10 - - - -
29/05:00am 16.0 NE 6 9 1012.7 - 0.0 - - 10 - - - -
29/04:30am 16.3 NE 6 9 1012.5 - 0.0 - - 10 - - - -
29/04:00am 16.3 NE 8 12 1012.0 - 0.0 - - 10 - - - -
29/03:30am 16.5 NE 8 14 1011.8 - 0.0 - - 10 - - - -
29/03:00am 16.6 NE 8 12 1011.6 F 0.0 - - 10 - - - -
29/02:30am 17.0 NE 11 17 1011.9 - 0.0 - - 10 - - - -
29/02:00am 17.2 NE 9 13 1012.1 - 0.0 - - 10 - - - -
29/01:30am 17.3 NE 8 12 1012.2 - 0.0 - - 10 - - - -
29/01:00am 17.6 NE 9 13 1012.3 - 0.0 - - 10 - - - -
29/12:30am 17.9 NE 10 14 1012.7 - 0.0 - - 10 - - - -
29/12:00am 18.2 NE 9 15 1012.8 F 0.0 - - 10 - - - -
 
Date/Time
WST
Temp

°C
Wind Pressure Rain
since 9am
mm
Weather Cloud Vis
km
Sea
Height
m
Swell
Dir
 
Speed
knots
Gust
knots
hPa Trend Height
m
Period
s
Dir
28/11:30pm 18.4 ENE 11 19 1013.0 - 0.0 - - 10 - - - -
28/11:00pm 18.8 NE 11 20 1013.1 - 0.0 - - 10 - - - -
28/10:30pm 19.0 ENE 10 14 1013.5 - 0.0 - - 10 - - - -
28/10:00pm 19.5 ENE 10 16 1013.6 - 0.0 - - 10 - - - -
28/09:30pm 19.9 ENE 10 19 1013.4 - 0.0 - - 10 - - - -
28/09:00pm 20.7 ENE 10 18 1013.2 R 0.0 - - 10 - - - -
28/08:30pm 21.7 ENE 9 18 1013.0 - 0.0 - - 10 - - - -
28/08:00pm 23.1 ENE 12 19 1012.5 - 0.0 - - 10 - - - -
28/07:30pm 24.2 E 10 16 1012.2 - 0.0 - - 10 - - - -
28/07:00pm 23.9 ESE 9 13 1011.8 - 0.0 - - 10 - - - -
28/06:30pm 25.1 ESE 12 19 1011.4 - 0.0 - - 10 - - - -
28/06:00pm 26.8 ESE 14 19 1011.1 F 0.0 Haze Clear 20 - - - -
28/05:30pm 27.0 ESE 15 24 1010.6 - 0.0 - - 10 - - - -
28/05:00pm 26.8 ESE 17 25 1010.4 - 0.0 - - 10 - - - -
28/04:30pm 26.4 ESE 18 24 1010.5 - 0.0 - - 10 - - - -
28/04:00pm 26.3 ESE 17 24 1010.7 - 0.0 - - 10 - - - -
28/03:30pm 26.8 ESE 17 24 1011.0 - 0.0 - - 10 - - - -
28/03:00pm 27.1 SE 17 25 1011.4 F 0.0 Haze Clear 20 - - - -
28/02:41pm 27.0 SE 17 27 1011.4 - 0.0 - - 10 - - - -
28/02:30pm 26.8 SE 18 24 1011.5 - 0.0 - - 10 - - - -
28/02:00pm 26.4 SE 18 26 1011.7 - 0.0 - - 10 - - - -
28/01:30pm 27.3 SE 17 25 1011.8 - 0.0 - - 10 - - - -
28/01:00pm 27.8 SE 17 24 1012.1 - 0.0 - - 10 - - - -
28/12:30pm 30.4 SE 8 15 1012.7 - 0.0 - - 10 - - - -
28/12:00pm 32.5 ENE 8 13 1012.9 F 0.0 Fine Clear 40 - - - -
28/11:30am 31.3 NE 8 15 1013.3 - 0.0 - - 10 - - - -
28/11:00am 30.2 NE 9 17 1013.7 - 0.0 - - 10 - - - -
28/10:30am 28.9 NE 9 14 1014.0 - 0.0 - - 10 - - - -
28/10:00am 27.6 NE 11 17 1014.2 - 0.0 - - 10 - - - -
28/09:30am 26.0 NNE 11 16 1014.3 - 0.0 - - 10 - - - -
28/09:00am 25.1 NE 11 15 1014.6 F 0.0 Fine Clear 30 - - - -
28/08:30am 23.2 NE 12 18 1014.9 - 0.0 - - 10 - - - -
28/08:00am 21.6 NE 13 16 1015.1 - 0.0 - - 10 - - - -
28/07:30am 20.3 NE 13 18 1015.3 - 0.0 - - 10 - - - -
28/07:00am 19.2 NNE 13 19 1015.4 - 0.0 - - 10 - - - -
28/06:30am 18.2 NNE 11 21 1015.1 - 0.0 - - 10 - - - -
28/06:00am 17.5 NE 10 17 1014.9 R 0.0 Fine Clear 30 - - - -
28/05:30am 17.1 NE 10 15 1014.7 - 0.0 - - 10 - - - -
28/05:00am 17.0 NE 9 15 1014.4 - 0.0 - - 10 - - - -
28/04:30am 17.3 NE 10 15 1014.0 - 0.0 - - 10 - - - -
28/04:00am 17.5 NNE 10 16 1013.6 - 0.0 - - 10 - - - -
28/03:30am 17.8 NNE 11 17 1013.3 - 0.0 - - 10 - - - -
28/03:00am 17.6 NE 13 19 1013.0 F 0.0 - - 10 - - - -
28/02:30am 17.7 NNE 13 19 1012.9 - 0.0 - - 10 - - - -
28/02:00am 17.7 NE 9 16 1012.8 - 0.0 - - 10 - - - -
28/01:30am 17.7 NE 11 17 1013.0 - 0.0 - - 10 - - - -
28/01:00am 17.9 NE 13 20 1013.2 - 0.0 - - 10 - - - -
28/12:30am 18.1 ENE 12 20 1013.5 - 0.0 - - 10 - - - -
28/12:00am 18.1 ENE 10 17 1014.0 F 0.0 - - 10 - - - -
 
Date/Time
WST
Temp

°C
Wind Pressure Rain
since 9am
mm
Weather Cloud Vis
km
Sea
Height
m
Swell
Dir
 
Speed
knots
Gust
knots
hPa Trend Height
m
Period
s
Dir
27/11:30pm 18.3 ENE 10 17 1014.2 - 0.0 - - 10 - - - -

Other Formats:

Comma delimited format used in spreadsheet applications
http://www.bom.gov.au/fwo/IDW60701/IDW60701.94638.axf

JavaScript Object Notation format (JSON) in row-major order
http://www.bom.gov.au/fwo/IDW60701/IDW60701.94638.json